Terminal Aerodrome Forecast
Issued by NWS Grand Junction, CO

Home | Current Version | Previous Version | Text Only | Print | Product List | Glossary On
Versions: 1 2 3 4 5 6 7 8 9 10 11 12 13 14 15 16 17 18 19 20 21 22 23
000
FTUS45 KGJT 202339
TAFGJT
TAF
KGJT 202339Z 2100/2124 28008KT P6SM SCT100
     FM210200 05004KT P6SM SCT100 BKN120
     FM210600 11010KT P6SM OVC100
     FM211400 26008KT P6SM VCSH SCT060 OVC090=

USA.gov is the U.S. government's official web portal to all federal, state and local government web resources and services.